createdAt,value
2022-10-29T00:00:54.798Z,14.42
2022-10-29T00:03:22.347Z,14.44
2022-10-29T00:05:58.498Z,14.63
2022-10-29T00:08:25.736Z,14.70
2022-10-29T00:10:52.520Z,14.68
2022-10-29T00:13:19.225Z,14.78
2022-10-29T00:15:45.944Z,14.61
2022-10-29T00:18:12.646Z,14.56
2022-10-29T00:20:39.267Z,14.61
2022-10-29T00:23:07.366Z,14.50
2022-10-29T00:25:34.042Z,14.25
2022-10-29T00:28:00.749Z,14.34
2022-10-29T00:30:27.489Z,14.43
2022-10-29T00:32:54.403Z,14.15
2022-10-29T00:35:21.155Z,14.14
2022-10-29T00:37:47.897Z,14.27
2022-10-29T00:40:16.129Z,14.47
2022-10-29T00:42:42.851Z,14.42
2022-10-29T00:45:18.708Z,14.38
2022-10-29T00:47:50.141Z,14.61
2022-10-29T00:50:17.606Z,14.49
2022-10-29T00:52:47.942Z,14.62
2022-10-29T00:55:17.210Z,14.56
2022-10-29T00:57:47.827Z,14.73
2022-10-29T01:00:15.240Z,14.54
2022-10-29T01:02:43.711Z,14.59
2022-10-29T01:05:12.195Z,14.35
2022-10-29T01:07:39.578Z,13.97
2022-10-29T01:10:07.334Z,14.07
2022-10-29T01:12:55.075Z,14.24
2022-10-29T01:15:29.114Z,14.50
2022-10-29T01:18:07.959Z,14.31
2022-10-29T01:21:01.625Z,14.07
2022-10-29T01:24:15.373Z,13.94
2022-10-29T01:27:19.692Z,14.30
2022-10-29T01:30:06.112Z,14.47
2022-10-29T01:32:43.283Z,14.34
2022-10-29T01:35:15.499Z,14.43
2022-10-29T01:37:54.068Z,14.30
2022-10-29T01:40:26.145Z,14.13
2022-10-29T01:42:58.244Z,14.30
2022-10-29T01:45:30.672Z,14.28
2022-10-29T01:48:04.479Z,14.24
2022-10-29T01:50:32.406Z,14.42
2022-10-29T01:53:00.571Z,14.27
2022-10-29T01:55:31.278Z,14.46
2022-10-29T01:57:58.281Z,14.47
2022-10-29T02:00:25.429Z,14.02
2022-10-29T02:03:06.348Z,13.78
2022-10-29T02:05:38.114Z,13.88
2022-10-29T02:08:16.908Z,13.93
2022-10-29T02:10:48.650Z,13.68
2022-10-29T02:13:19.279Z,14.15
2022-10-29T02:15:50.208Z,14.15
2022-10-29T02:18:18.548Z,14.21
2022-10-29T02:20:46.385Z,14.05
2022-10-29T02:23:15.168Z,14.07
2022-10-29T02:25:41.935Z,13.86
2022-10-29T02:28:08.781Z,13.91
2022-10-29T02:30:35.575Z,14.11
2022-10-29T02:33:02.237Z,14.18
2022-10-29T02:35:30.381Z,14.10
2022-10-29T02:37:57.064Z,13.52
2022-10-29T02:40:23.675Z,13.73
2022-10-29T02:42:50.369Z,13.74
2022-10-29T02:45:17.347Z,13.96
2022-10-29T02:47:44.047Z,13.80
2022-10-29T02:50:10.760Z,13.97
2022-10-29T02:52:40.140Z,13.92
2022-10-29T02:55:07.325Z,13.93
2022-10-29T02:57:34.053Z,13.88
2022-10-29T03:00:00.835Z,13.97
2022-10-29T03:02:27.588Z,13.96
2022-10-29T03:04:54.318Z,14.06
2022-10-29T03:07:20.975Z,13.84
2022-10-29T03:09:49.102Z,14.09
2022-10-29T03:12:15.800Z,13.89
2022-10-29T03:14:42.461Z,14.06
2022-10-29T03:17:09.095Z,14.24
2022-10-29T03:19:35.850Z,14.09
2022-10-29T03:22:02.538Z,13.98
2022-10-29T03:24:29.235Z,13.53
2022-10-29T03:26:57.290Z,13.86
2022-10-29T03:29:23.987Z,13.55
2022-10-29T03:31:50.687Z,13.85
2022-10-29T03:34:17.344Z,13.71
2022-10-29T03:36:44.295Z,13.42
2022-10-29T03:39:10.972Z,13.65
2022-10-29T03:41:37.803Z,13.76
2022-10-29T03:44:06.018Z,13.51
2022-10-29T03:46:32.914Z,13.66
2022-10-29T03:48:59.645Z,13.81
2022-10-29T03:51:26.323Z,13.67
2022-10-29T03:53:52.982Z,13.77
2022-10-29T03:56:19.663Z,13.90
2022-10-29T03:58:46.292Z,13.75
2022-10-29T04:01:14.533Z,13.82
2022-10-29T04:03:41.265Z,13.87
2022-10-29T04:06:14.127Z,13.84
2022-10-29T04:08:41.534Z,13.59
2022-10-29T04:11:11.414Z,13.75
2022-10-29T04:13:38.103Z,13.76
2022-10-29T04:16:05.318Z,13.56
2022-10-29T04:18:33.605Z,13.84
2022-10-29T04:29:22.658Z,13.84
2022-10-29T04:31:49.666Z,13.77
2022-10-29T04:34:17.933Z,13.64
2022-10-29T04:36:44.600Z,13.47
2022-10-29T04:39:11.290Z,13.60
2022-10-29T04:41:38.069Z,13.73
2022-10-29T04:44:05.047Z,13.68
2022-10-29T04:46:31.705Z,13.41
2022-10-29T04:48:58.445Z,13.36
2022-10-29T04:51:27.042Z,13.62
2022-10-29T04:53:53.700Z,13.39
2022-10-29T04:56:20.420Z,13.26
2022-10-29T04:58:47.141Z,13.34
2022-10-29T05:01:13.974Z,13.52
2022-10-29T05:03:40.880Z,13.38
2022-10-29T05:06:07.713Z,13.28
2022-10-29T05:08:35.807Z,13.44
2022-10-29T05:11:03.068Z,13.45
2022-10-29T05:13:29.726Z,13.45
2022-10-29T05:15:56.506Z,13.59
2022-10-29T05:18:23.586Z,13.43
2022-10-29T05:20:53.127Z,13.40
2022-10-29T05:23:20.528Z,13.37
2022-10-29T05:25:49.068Z,12.97
2022-10-29T05:28:17.723Z,13.63
2022-10-29T05:30:44.852Z,13.52
2022-10-29T05:33:14.249Z,13.17
2022-10-29T05:35:41.437Z,13.39
2022-10-29T05:38:10.350Z,13.25
2022-10-29T05:40:37.238Z,13.09
2022-10-29T05:43:05.743Z,13.18
2022-10-29T05:45:32.369Z,13.41
2022-10-29T05:48:00.783Z,13.35
2022-10-29T05:50:28.478Z,13.33
2022-10-29T05:52:56.174Z,13.37
2022-10-29T05:55:23.154Z,13.75
2022-10-29T05:57:49.917Z,13.43
2022-10-29T06:00:18.225Z,13.53
2022-10-29T06:02:45.262Z,13.20
2022-10-29T06:05:12.050Z,13.39
2022-10-29T06:07:38.907Z,13.85
2022-10-29T06:10:06.949Z,13.74
2022-10-29T06:12:34.968Z,13.71
2022-10-29T06:15:01.942Z,13.56
2022-10-29T06:17:30.153Z,13.90
2022-10-29T06:19:57.006Z,14.04
2022-10-29T06:22:23.689Z,14.00
2022-10-29T06:24:50.341Z,13.95
2022-10-29T06:27:17.065Z,13.84
2022-10-29T06:29:43.733Z,14.03
2022-10-29T06:32:10.393Z,14.09
2022-10-29T06:34:38.479Z,14.00
2022-10-29T06:37:05.259Z,14.07
2022-10-29T06:39:32.038Z,14.07
2022-10-29T06:41:58.754Z,14.21
2022-10-29T06:44:25.530Z,14.09
2022-10-29T06:46:52.164Z,13.65
2022-10-29T06:49:18.886Z,13.92
2022-10-29T06:51:47.175Z,14.07
2022-10-29T06:54:14.162Z,14.07
2022-10-29T06:56:41.122Z,13.73
2022-10-29T06:59:08.050Z,13.76
2022-10-29T07:01:34.820Z,14.04
2022-10-29T07:04:01.961Z,13.88
2022-10-29T07:06:32.261Z,14.15
2022-10-29T07:09:00.391Z,13.59
2022-10-29T07:11:27.109Z,13.67
2022-10-29T07:13:53.820Z,13.70
2022-10-29T07:16:20.536Z,13.71
2022-10-29T07:18:47.284Z,13.69
2022-10-29T07:21:14.011Z,14.05
2022-10-29T07:23:40.757Z,14.34
2022-10-29T07:26:08.921Z,14.18
2022-10-29T07:28:35.792Z,14.34
2022-10-29T07:31:02.520Z,14.15
2022-10-29T07:33:29.536Z,14.15
2022-10-29T07:35:57.558Z,14.17
2022-10-29T07:38:24.601Z,14.00
2022-10-29T07:40:51.739Z,14.07
2022-10-29T07:43:21.331Z,13.93
2022-10-29T07:45:49.857Z,14.23
2022-10-29T07:48:17.671Z,14.04
2022-10-29T07:50:44.350Z,14.01
2022-10-29T07:53:11.370Z,13.90
2022-10-29T07:55:38.525Z,14.13
2022-10-29T07:58:12.350Z,14.07
2022-10-29T08:00:50.756Z,14.16
2022-10-29T08:03:17.593Z,14.19
2022-10-29T08:05:44.556Z,14.26
2022-10-29T08:08:11.244Z,14.13
2022-10-29T08:10:39.970Z,13.99
2022-10-29T08:13:07.053Z,14.20
2022-10-29T08:15:34.673Z,14.15
2022-10-29T08:18:03.360Z,14.06
2022-10-29T08:20:30.140Z,14.46
2022-10-29T08:22:59.870Z,14.53
2022-10-29T08:25:27.123Z,14.77
2022-10-29T08:28:01.854Z,14.78
2022-10-29T08:30:29.489Z,14.86
2022-10-29T08:32:57.809Z,14.88
2022-10-29T08:35:28.322Z,14.20
2022-10-29T08:37:55.924Z,13.91
2022-10-29T08:40:32.343Z,14.80
2022-10-29T08:46:31.887Z,14.88
2022-10-29T08:49:18.784Z,14.94
2022-10-29T08:51:53.704Z,15.01
2022-10-29T08:54:30.960Z,14.89
2022-10-29T08:57:02.518Z,14.61
2022-10-29T08:59:35.858Z,14.48
2022-10-29T09:02:02.903Z,14.74
2022-10-29T09:04:34.190Z,15.24
2022-10-29T09:07:28.927Z,15.18
2022-10-29T09:10:04.289Z,15.11
2022-10-29T09:12:52.282Z,15.19
2022-10-29T09:15:33.842Z,15.18
2022-10-29T09:18:14.897Z,15.43
2022-10-29T09:20:55.184Z,15.18
2022-10-29T09:23:38.306Z,14.96
2022-10-29T09:26:16.114Z,15.05
2022-10-29T09:28:55.496Z,15.06
2022-10-29T09:31:27.734Z,15.48
2022-10-29T09:34:00.884Z,15.22
2022-10-29T09:36:31.966Z,15.17
2022-10-29T09:39:13.463Z,15.51
2022-10-29T09:41:41.394Z,14.96
2022-10-29T09:44:19.026Z,14.55
2022-10-29T09:46:55.695Z,14.75
2022-10-29T09:49:45.198Z,15.45
2022-10-29T09:52:16.745Z,15.17
2022-10-29T09:54:46.118Z,15.19
2022-10-29T09:57:22.352Z,14.75
2022-10-29T09:59:56.402Z,15.18
2022-10-29T10:02:33.174Z,15.42
2022-10-29T10:05:12.478Z,14.88
2022-10-29T10:07:39.637Z,15.27
2022-10-29T10:10:21.080Z,15.28
2022-10-29T10:12:49.898Z,15.05
2022-10-29T10:15:25.425Z,15.14
2022-10-29T10:18:02.734Z,15.59
2022-10-29T10:20:38.572Z,15.63
2022-10-29T10:23:25.854Z,15.92
2022-10-29T10:25:58.919Z,16.01
2022-10-29T10:28:30.723Z,15.90
2022-10-29T10:31:08.130Z,15.47
2022-10-29T10:33:36.909Z,15.83
2022-10-29T10:36:06.037Z,15.86
2022-10-29T10:38:39.343Z,15.10
2022-10-29T10:41:10.619Z,15.88
2022-10-29T10:43:47.917Z,16.19
2022-10-29T10:46:19.940Z,16.14
2022-10-29T10:48:57.767Z,15.85
2022-10-29T10:51:28.040Z,15.83
2022-10-29T10:53:54.932Z,15.77
2022-10-29T10:56:23.323Z,15.60
2022-10-29T10:59:03.506Z,16.29
2022-10-29T11:01:35.216Z,15.95
2022-10-29T11:04:10.808Z,15.81
2022-10-29T11:06:41.608Z,16.26
2022-10-29T11:09:18.573Z,16.07
2022-10-29T11:11:57.923Z,16.35
2022-10-29T11:14:31.565Z,15.88
2022-10-29T11:17:01.316Z,16.00
2022-10-29T11:19:35.925Z,15.95
2022-10-29T11:22:12.209Z,15.94
2022-10-29T11:24:53.002Z,16.07
2022-10-29T11:27:32.288Z,16.03
2022-10-29T11:30:04.828Z,15.90
2022-10-29T11:32:44.750Z,16.24
2022-10-29T11:35:32.813Z,15.93
2022-10-29T11:38:11.386Z,16.19
2022-10-29T11:40:44.867Z,16.18
2022-10-29T11:43:31.379Z,16.03
2022-10-29T11:46:03.453Z,15.97
2022-10-29T11:48:54.629Z,16.02
2022-10-29T11:51:31.063Z,15.90
2022-10-29T11:54:18.195Z,15.88
2022-10-29T11:56:52.736Z,16.16
2022-10-29T11:59:37.998Z,16.33
2022-10-29T12:02:20.425Z,16.51
2022-10-29T12:04:53.936Z,16.45
2022-10-29T12:07:34.954Z,16.64
2022-10-29T12:10:19.323Z,16.54
2022-10-29T12:12:53.507Z,16.78
2022-10-29T12:15:26.936Z,16.80
2022-10-29T12:18:06.158Z,16.55
2022-10-29T12:20:36.148Z,16.62
2022-10-29T12:23:15.665Z,16.50
2022-10-29T12:25:54.647Z,16.52
2022-10-29T12:28:29.915Z,16.21
2022-10-29T12:31:13.075Z,16.29
2022-10-29T12:33:48.197Z,16.57
2022-10-29T12:36:23.600Z,16.60
2022-10-29T12:38:53.606Z,16.83
2022-10-29T12:41:24.065Z,16.44
2022-10-29T12:43:51.882Z,16.60
2022-10-29T12:46:33.081Z,16.66
2022-10-29T12:49:18.757Z,16.51
2022-10-29T12:51:53.426Z,16.42
2022-10-29T12:54:28.920Z,16.29
2022-10-29T12:56:56.028Z,16.33
2022-10-29T12:59:42.700Z,16.38
2022-10-29T13:02:42.239Z,16.02
2022-10-29T13:05:39.563Z,16.54
2022-10-29T13:08:32.902Z,16.70
2022-10-29T13:10:59.760Z,16.78
2022-10-29T13:13:59.638Z,16.87
2022-10-29T13:16:29.691Z,16.90
2022-10-29T13:19:22.575Z,16.95
2022-10-29T13:22:35.272Z,16.84
2022-10-29T13:25:44.618Z,16.88
2022-10-29T13:28:48.647Z,16.86
2022-10-29T13:31:59.479Z,17.01
2022-10-29T13:34:50.612Z,17.06
2022-10-29T13:37:57.209Z,16.71
2022-10-29T13:41:03.152Z,16.84
2022-10-29T13:43:40.019Z,16.86
2022-10-29T13:46:28.457Z,16.96
2022-10-29T13:49:11.402Z,16.82
2022-10-29T13:51:49.838Z,16.84
2022-10-29T13:54:23.104Z,17.01
2022-10-29T13:56:54.898Z,16.86
2022-10-29T13:59:41.153Z,16.97
2022-10-29T14:02:23.614Z,16.98
2022-10-29T14:04:55.635Z,17.00
2022-10-29T14:07:47.397Z,16.75
2022-10-29T14:10:18.834Z,16.51
2022-10-29T14:12:48.595Z,16.58
2022-10-29T14:15:42.066Z,16.95
2022-10-29T14:18:18.563Z,16.57
2022-10-29T14:20:55.243Z,16.28
2022-10-29T14:23:23.798Z,16.44
2022-10-29T14:25:52.001Z,16.39
2022-10-29T14:28:23.780Z,16.55
2022-10-29T14:31:01.859Z,16.83
2022-10-29T14:33:30.753Z,16.73
2022-10-29T14:36:05.543Z,16.61
2022-10-29T14:38:39.364Z,16.73
2022-10-29T14:41:06.126Z,16.56
2022-10-29T14:43:55.333Z,16.63
2022-10-29T14:46:34.695Z,16.69
2022-10-29T14:49:18.009Z,16.54
2022-10-29T14:51:51.758Z,16.54
2022-10-29T14:54:23.923Z,16.46
2022-10-29T14:56:59.072Z,16.47
2022-10-29T14:59:29.390Z,16.37
2022-10-29T15:02:05.597Z,16.23
2022-10-29T15:04:49.565Z,15.85
2022-10-29T15:07:28.867Z,15.95
2022-10-29T15:10:38.305Z,16.12
2022-10-29T15:13:41.079Z,16.04
2022-10-29T15:16:27.332Z,15.85
2022-10-29T15:18:55.670Z,15.77
2022-10-29T15:21:23.729Z,15.89
2022-10-29T15:23:55.478Z,15.89
2022-10-29T15:26:22.279Z,15.63
2022-10-29T15:28:54.525Z,15.53
2022-10-29T15:31:34.202Z,15.37
2022-10-29T15:34:08.056Z,15.50
2022-10-29T15:36:48.542Z,15.41
2022-10-29T15:39:20.940Z,15.20
2022-10-29T15:41:49.584Z,15.22
2022-10-29T15:44:39.093Z,15.32
2022-10-29T15:47:26.782Z,14.86
2022-10-29T15:49:53.498Z,14.69
2022-10-29T15:52:24.597Z,14.88
2022-10-29T15:54:51.258Z,14.96
2022-10-29T15:57:18.111Z,14.56
2022-10-29T15:59:46.277Z,14.87
2022-10-29T16:02:14.552Z,14.59
2022-10-29T16:04:41.330Z,14.82
2022-10-29T16:07:11.693Z,14.81
2022-10-29T16:09:42.670Z,14.87
2022-10-29T16:12:10.351Z,14.75
2022-10-29T16:14:37.217Z,14.54
2022-10-29T16:17:12.085Z,14.71
2022-10-29T16:19:38.735Z,14.50
2022-10-29T16:22:05.452Z,14.38
2022-10-29T16:24:32.112Z,14.68
2022-10-29T16:26:58.751Z,14.62
2022-10-29T16:29:25.387Z,14.45
2022-10-29T16:31:52.190Z,14.40
2022-10-29T16:34:27.226Z,14.33
2022-10-29T16:36:53.944Z,14.28
2022-10-29T16:39:20.625Z,14.32
2022-10-29T16:41:47.345Z,14.39
2022-10-29T16:44:14.100Z,14.28
2022-10-29T16:46:40.853Z,14.10
2022-10-29T16:49:07.479Z,14.23
2022-10-29T16:51:35.607Z,14.23
2022-10-29T16:54:02.309Z,14.11
2022-10-29T16:56:29.061Z,14.10
2022-10-29T16:59:01.602Z,14.15
2022-10-29T17:01:28.780Z,14.41
2022-10-29T17:03:55.541Z,14.38
2022-10-29T17:06:22.253Z,14.08
2022-10-29T17:08:50.397Z,14.16
2022-10-29T17:11:17.125Z,14.35
2022-10-29T17:13:43.903Z,14.28
2022-10-29T17:16:12.517Z,14.28
2022-10-29T17:18:42.321Z,14.14
2022-10-29T17:21:09.029Z,14.18
2022-10-29T17:23:35.769Z,13.89
2022-10-29T17:26:04.076Z,14.34
2022-10-29T17:28:30.756Z,14.49
2022-10-29T17:30:57.439Z,14.26
2022-10-29T17:33:24.070Z,14.54
2022-10-29T17:36:00.855Z,14.48
2022-10-29T17:38:27.535Z,14.33
2022-10-29T17:40:54.190Z,14.46
2022-10-29T17:43:22.522Z,14.10
2022-10-29T17:45:49.229Z,14.54
2022-10-29T17:48:17.783Z,14.60
2022-10-29T17:50:51.841Z,14.45
2022-10-29T17:53:18.483Z,14.49
2022-10-29T17:55:45.110Z,14.47
2022-10-29T17:58:15.532Z,14.56
2022-10-29T18:00:46.677Z,14.88
2022-10-29T18:03:13.744Z,14.83
2022-10-29T18:05:40.446Z,14.81
2022-10-29T18:08:07.234Z,14.77
2022-10-29T18:10:34.560Z,14.82
2022-10-29T18:13:01.377Z,14.84
2022-10-29T18:15:28.425Z,14.75
2022-10-29T18:17:58.916Z,14.72
2022-10-29T18:20:25.667Z,14.91
2022-10-29T18:22:55.894Z,14.73
2022-10-29T18:25:22.987Z,14.71
2022-10-29T18:27:56.722Z,14.71
2022-10-29T18:30:23.640Z,14.80
2022-10-29T18:32:50.440Z,14.83
2022-10-29T18:35:18.626Z,14.94
2022-10-29T18:37:46.070Z,14.98
2022-10-29T18:40:13.004Z,15.02
2022-10-29T18:42:39.707Z,14.93
2022-10-29T18:45:07.594Z,15.17
2022-10-29T18:47:34.238Z,15.05
2022-10-29T18:50:00.943Z,14.93
2022-10-29T18:52:28.997Z,14.94
2022-10-29T18:54:55.793Z,14.97
2022-10-29T18:57:22.517Z,14.71
2022-10-29T18:59:49.255Z,15.07
2022-10-29T19:02:16.230Z,14.87
2022-10-29T19:04:43.152Z,14.99
2022-10-29T19:07:09.826Z,14.95
2022-10-29T19:09:37.875Z,14.70
2022-10-29T19:12:04.955Z,14.82
2022-10-29T19:14:31.651Z,14.79
2022-10-29T19:16:58.319Z,14.70
2022-10-29T19:19:25.067Z,14.83
2022-10-29T19:21:51.771Z,14.64
2022-10-29T19:24:18.615Z,14.64
2022-10-29T19:26:47.017Z,14.66
2022-10-29T19:29:14.045Z,14.55
2022-10-29T19:31:40.902Z,14.82
2022-10-29T19:34:08.508Z,14.64
2022-10-29T19:36:37.404Z,14.48
2022-10-29T19:39:04.311Z,14.65
2022-10-29T19:41:31.070Z,14.60
2022-10-29T19:44:00.274Z,14.54
2022-10-29T19:46:27.157Z,14.81
2022-10-29T19:48:55.432Z,14.94
2022-10-29T19:51:23.209Z,14.98
2022-10-29T19:53:50.481Z,14.65
2022-10-29T19:56:17.844Z,14.63
2022-10-29T19:58:44.561Z,14.85
2022-10-29T20:01:14.419Z,14.84
2022-10-29T20:03:41.268Z,14.83
2022-10-29T20:06:08.732Z,14.87
2022-10-29T20:08:35.648Z,14.77
2022-10-29T20:11:02.366Z,14.90
2022-10-29T20:13:29.020Z,14.90
2022-10-29T20:15:55.704Z,14.98
2022-10-29T20:18:24.000Z,14.72
2022-10-29T20:20:54.553Z,14.65
2022-10-29T20:23:21.427Z,14.60
2022-10-29T20:25:48.113Z,14.53
2022-10-29T20:28:15.025Z,14.65
2022-10-29T20:30:41.667Z,14.55
2022-10-29T20:33:08.318Z,14.49
2022-10-29T20:35:36.420Z,14.49
2022-10-29T20:38:03.330Z,14.28
2022-10-29T20:40:30.043Z,14.38
2022-10-29T20:42:56.815Z,14.25
2022-10-29T20:45:23.683Z,14.07
2022-10-29T20:47:50.323Z,14.40
2022-10-29T20:50:17.061Z,14.59
2022-10-29T20:52:59.147Z,14.31
2022-10-29T20:55:25.951Z,14.46
2022-10-29T20:57:52.623Z,14.13
2022-10-29T21:00:19.500Z,14.30
2022-10-29T21:02:46.257Z,15.08
2022-10-29T21:05:13.020Z,15.20
2022-10-29T21:07:39.849Z,15.26
2022-10-29T21:10:09.373Z,15.23
2022-10-29T21:12:36.073Z,15.16
2022-10-29T21:15:02.821Z,14.97
2022-10-29T21:17:29.556Z,14.89
2022-10-29T21:19:56.243Z,14.88
2022-10-29T21:22:22.944Z,14.90
2022-10-29T21:24:49.631Z,14.81
2022-10-29T21:27:17.786Z,14.60
2022-10-29T21:29:44.454Z,14.67
2022-10-29T21:32:14.347Z,14.29
2022-10-29T21:34:59.112Z,14.60
2022-10-29T21:37:26.278Z,14.48
2022-10-29T21:39:52.970Z,14.75
2022-10-29T21:42:21.244Z,14.64
2022-10-29T21:44:47.917Z,14.55
2022-10-29T21:47:16.758Z,14.21
2022-10-29T21:49:46.911Z,14.20
2022-10-29T21:52:16.348Z,14.03
2022-10-29T21:54:43.109Z,13.79
2022-10-29T21:57:15.874Z,13.93
2022-10-29T21:59:58.254Z,14.04
2022-10-29T22:02:25.258Z,13.93
2022-10-29T22:04:52.040Z,13.95
2022-10-29T22:07:30.808Z,13.97
2022-10-29T22:09:57.599Z,14.09
2022-10-29T22:12:24.348Z,14.10
2022-10-29T22:14:51.112Z,13.80
2022-10-29T22:17:19.292Z,13.32
2022-10-29T22:19:46.203Z,13.57
2022-10-29T22:22:13.079Z,13.97
2022-10-29T22:24:39.828Z,13.93
2022-10-29T22:27:07.753Z,13.80
2022-10-29T22:29:38.872Z,14.01
2022-10-29T23:17:05.655Z,13.16
2022-10-29T23:19:32.290Z,13.28
2022-10-29T23:21:58.916Z,12.99
2022-10-29T23:24:25.676Z,12.94
2022-10-29T23:26:52.371Z,13.14
2022-10-29T23:29:30.320Z,13.35
2022-10-29T23:31:56.988Z,13.27
2022-10-29T23:34:25.054Z,12.85
2022-10-29T23:39:19.264Z,13.30
2022-10-29T23:41:45.913Z,13.21
2022-10-29T23:44:12.633Z,13.37
2022-10-29T23:46:39.311Z,13.27
2022-10-29T23:49:05.987Z,13.41
2022-10-29T23:54:01.738Z,13.20
2022-10-29T23:56:28.401Z,13.50
2022-10-29T23:58:55.298Z,13.31
